Time;durP1;ratioP1;P1;durP2;ratioP2;P2;SDS_P1;SDS_P2;PMS_P1;PMS_P2;Temp;Humidity;BMP_temperature;BMP_pressure;BME280_temperature;BME280_humidity;BME280_pressure;Samples;Min_cycle;Max_cycle;Signal;HPM_P1;HPM_P2
2023/07/05 00:02:45;;;;;;;17.00;5.78;;;;;;;19.58;60.25;99675.56;4303898;33;20179;-93
2023/07/05 00:09:17;;;;;;;;;;;;;;;;;;;;;
2023/07/05 00:19:06;;;;;;;;;;;;;;;;;;;;;
2023/07/05 00:47:16;;;;;;;;;;;;;;;;;;;;;
2023/07/05 01:04:04;;;;;;;;;;;;;;;;;;;;;
2023/07/05 01:09:37;;;;;;;;;;;;;;;;;;;;;
2023/07/05 01:12:48;;;;;;;10.80;5.45;;;;;;;18.84;60.20;99656.00;4262642;33;35235;-93
2023/07/05 01:28:59;;;;;;;;;;;;;;;;;;;;;
2023/07/05 01:32:05;;;;;;;12.20;5.25;;;;;;;18.81;60.20;99650.94;4261297;33;35585;-94
2023/07/05 01:35:19;;;;;;;9.95;4.70;;;;;;;18.96;60.22;99651.72;4254672;33;20135;-94
2023/07/05 01:38:55;;;;;;;10.15;5.30;;;;;;;18.81;60.21;99653.59;4284239;33;20800;-95
2023/07/05 01:41:09;;;;;;;7.62;4.80;;;;;;;18.81;60.20;99656.22;4278419;33;20075;-93
2023/07/05 01:48:03;;;;;;;8.38;4.62;;;;;;;18.79;60.20;99654.66;4320782;33;20112;-93
2023/07/05 01:50:52;;;;;;;8.10;4.72;;;;;;;18.76;60.20;99650.41;4298748;33;20088;-92
2023/07/05 01:53:38;;;;;;;;;;;;;;;;;;;;;
2023/07/05 01:59:41;;;;;;;8.38;5.22;;;;;;;18.89;60.21;99656.53;4330051;32;20120;-93
2023/07/05 02:02:07;;;;;;;6.03;4.32;;;;;;;18.72;60.20;99654.22;4299147;33;20118;-92
2023/07/05 02:04:35;;;;;;;8.15;4.90;;;;;;;18.51;60.18;99647.69;4296462;33;20056;-94
2023/07/05 02:07:03;;;;;;;12.07;5.05;;;;;;;18.49;60.19;99645.16;4291325;33;20111;-93
2023/07/05 02:09:55;;;;;;;;;;;;;;;;;;;;;
2023/07/05 02:12:26;;;;;;;8.93;4.93;;;;;;;18.59;60.19;99640.97;4308815;33;36212;-94
2023/07/05 02:15:16;;;;;;;;;;;;;;;;;;;;;
2023/07/05 02:18:05;;;;;;;;;;;;;;;;;;;;;
2023/07/05 02:20:42;;;;;;;10.57;5.12;;;;;;;18.37;60.18;99644.19;4310059;33;34981;-94
2023/07/05 02:23:08;;;;;;;8.60;4.90;;;;;;;18.31;60.17;99641.94;4297051;33;20217;-90
2023/07/05 02:25:35;;;;;;;8.07;4.78;;;;;;;18.35;60.18;99645.22;4295021;33;20116;-91
2023/07/05 02:28:00;;;;;;;8.23;4.82;;;;;;;18.32;60.18;99645.44;4283175;33;20117;-91
2023/07/05 02:30:26;;;;;;;9.70;4.93;;;;;;;18.28;60.17;99643.94;4283267;33;20167;-91
2023/07/05 02:32:52;;;;;;;10.98;5.37;;;;;;;18.34;60.18;99644.38;4295141;33;20105;-91
2023/07/05 02:35:17;;;;;;;7.57;4.50;;;;;;;18.51;60.19;99643.28;4294991;33;20132;-91
2023/07/05 02:37:42;;;;;;;11.18;5.40;;;;;;;18.36;60.18;99641.63;4295410;33;20176;-91
2023/07/05 02:40:08;;;;;;;10.73;5.43;;;;;;;18.31;60.17;99635.84;4294878;33;20100;-91
2023/07/05 02:42:34;;;;;;;8.50;4.93;;;;;;;18.23;60.18;99646.03;4295371;33;20398;-93
2023/07/05 02:44:59;;;;;;;11.10;4.97;;;;;;;18.22;60.17;99631.19;4297065;33;20103;-93
2023/07/05 02:47:25;;;;;;;13.77;5.30;;;;;;;18.19;60.18;99640.09;4296908;33;20147;-94
2023/07/05 02:49:53;;;;;;;10.82;4.50;;;;;;;18.19;60.17;99639.25;4296402;33;20104;-93
2023/07/05 02:52:18;;;;;;;9.40;4.62;;;;;;;18.24;60.18;99640.66;4295210;33;20112;-92
2023/07/05 02:54:43;;;;;;;11.57;4.57;;;;;;;18.16;60.17;99639.47;4294859;33;20159;-91
2023/07/05 02:57:09;;;;;;;6.80;4.43;;;;;;;18.20;60.17;99633.88;4294516;33;21422;-92
2023/07/05 03:00:32;;;;;;;7.43;4.62;;;;;;;18.32;60.18;99634.87;4282489;33;20100;-91
2023/07/05 03:02:57;;;;;;;8.63;4.28;;;;;;;18.25;60.17;99642.34;4296039;33;20097;-94
2023/07/05 03:05:23;;;;;;;10.23;4.55;;;;;;;18.14;60.17;99641.34;4295776;33;20104;-93
2023/07/05 03:07:48;;;;;;;10.27;4.70;;;;;;;18.12;60.17;99644.09;4295997;33;20106;-92
2023/07/05 03:10:16;;;;;;;12.45;4.82;;;;;;;18.18;60.17;99642.84;4295868;33;20406;-93
2023/07/05 03:13:24;;;;;;;8.20;4.55;;;;;;;18.10;60.17;99641.56;4296176;33;20065;-93
2023/07/05 03:15:53;;;;;;;6.47;3.97;;;;;;;18.23;60.18;99641.63;4266395;33;20139;-92
2023/07/05 03:18:21;;;;;;;9.70;4.83;;;;;;;18.24;60.18;99639.81;4278389;33;20089;-93
2023/07/05 03:24:40;;;;;;;10.35;4.75;;;;;;;18.33;60.17;99641.84;4321823;33;20092;-94
2023/07/05 03:27:06;;;;;;;9.57;4.85;;;;;;;18.68;60.19;99637.72;4293757;33;20087;-92
2023/07/05 03:29:31;;;;;;;13.80;5.35;;;;;;;18.53;60.18;99645.81;4297335;33;20104;-91
2023/07/05 03:31:58;;;;;;;7.87;5.37;;;;;;;18.70;60.20;99635.03;4294942;33;20084;-94
2023/07/05 03:37:54;;;;;;;9.13;5.25;;;;;;;18.57;60.19;99634.94;4281753;33;20103;-92
2023/07/05 03:41:05;;;;;;;9.18;5.12;;;;;;;18.59;60.19;99646.25;4294931;33;20092;-92
2023/07/05 03:43:33;;;;;;;10.52;4.72;;;;;;;18.73;60.20;99644.50;4287174;33;20138;-92
2023/07/05 03:46:05;;;;;;;10.10;5.10;;;;;;;18.85;60.21;99644.50;4283264;33;20146;-93
2023/07/05 03:48:32;;;;;;;11.15;4.78;;;;;;;18.81;60.20;99644.84;4282948;33;20833;-91
2023/07/05 03:50:58;;;;;;;9.52;4.53;;;;;;;18.97;60.21;99638.41;4283057;33;20450;-93
2023/07/05 03:53:23;;;;;;;9.20;4.72;;;;;;;19.02;60.22;99652.13;4295100;33;20127;-94
2023/07/05 03:55:49;;;;;;;8.65;4.53;;;;;;;19.01;60.22;99650.44;4283901;33;20446;-95
2023/07/05 03:58:39;;;;;;;8.20;4.82;;;;;;;19.13;60.22;99634.72;4295594;33;20087;-94
2023/07/05 04:01:23;;;;;;;10.98;4.97;;;;;;;19.28;60.23;99642.41;4295326;33;20104;-93
2023/07/05 04:03:56;;;;;;;10.80;5.25;;;;;;;19.14;60.22;99646.94;4296897;33;20116;-95
2023/07/05 04:06:23;;;;;;;9.43;4.37;;;;;;;19.17;60.23;99642.34;4285446;33;20192;-96
2023/07/05 04:08:51;;;;;;;10.95;4.78;;;;;;;19.22;60.22;99642.84;4296298;33;20068;-95
2023/07/05 04:17:55;;;;;;;9.85;4.90;;;;;;;19.59;60.24;99646.41;4288925;33;20088;-93
2023/07/05 04:20:21;;;;;;;13.20;6.43;;;;;;;19.82;60.25;99644.78;4295775;33;20117;-91
2023/07/05 04:22:46;;;;;;;10.90;5.53;;;;;;;19.87;60.25;99642.69;4294363;33;20189;-91
2023/07/05 04:25:13;;;;;;;10.38;5.45;;;;;;;19.86;60.26;99650.69;4282087;33;20108;-91
2023/07/05 04:27:38;;;;;;;11.73;6.15;;;;;;;19.92;60.26;99653.75;4294800;33;20802;-92
2023/07/05 04:45:08;;;;;;;;;;;;;;;;;;;;;
2023/07/05 04:51:19;;;;;;;;;;;;;;;;;;;;;
2023/07/05 04:54:47;;;;;;;;;;;;;;;;;;;;;
2023/07/05 05:19:16;;;;;;;;;;;;;;;;;;;;;
2023/07/05 05:21:44;;;;;;;10.25;6.37;;;;;;;22.90;60.42;99648.97;4149619;34;35151;-94
2023/07/05 05:24:14;;;;;;;15.48;7.35;;;;;;;22.77;60.40;99648.31;4178757;34;20095;-93
2023/07/05 07:07:20;;;;;;;10.45;7.05;;;;;;;28.61;60.70;99591.69;4304777;33;20149;-94
2023/07/05 08:14:15;;;;;;;;;;;;;;;;;;;;;
2023/07/05 08:16:36;;;;;;;9.23;6.10;;;;;;;31.22;60.84;99577.66;4332338;33;20100;-96
2023/07/05 08:19:02;;;;;;;12.25;6.15;;;;;;;31.24;60.84;99576.47;4312013;33;20124;-96
2023/07/05 08:21:27;;;;;;;8.93;5.15;;;;;;;31.41;60.85;99586.00;4301322;33;20115;-96
2023/07/05 08:24:29;;;;;;;9.63;5.15;;;;;;;31.60;60.86;99570.28;4300460;33;20103;-96
2023/07/05 08:26:55;;;;;;;10.98;5.43;;;;;;;31.64;60.87;99564.34;4319616;33;20115;-96
2023/07/05 08:29:21;;;;;;;10.80;5.68;;;;;;;31.82;60.88;99563.12;4286240;33;20731;-96
2023/07/05 08:31:55;;;;;;;9.82;5.55;;;;;;;31.85;60.87;99565.44;4296679;33;20111;-96
2023/07/05 08:35:20;;;;;;;11.35;6.15;;;;;;;31.89;60.88;99564.84;4287462;33;20112;-96
2023/07/05 08:41:41;;;;;;;7.90;5.40;;;;;;;31.85;60.87;99571.66;4293764;33;20096;-96
2023/07/05 08:44:31;;;;;;;9.70;5.95;;;;;;;32.20;60.90;99569.94;4284552;33;20140;-94
2023/07/05 08:47:08;;;;;;;9.20;5.82;;;;;;;32.56;60.91;99571.72;4303843;33;20120;-93
2023/07/05 08:49:43;;;;;;;8.27;5.15;;;;;;;32.76;60.93;99572.72;4302898;33;20068;-92
2023/07/05 08:52:33;;;;;;;11.10;6.25;;;;;;;33.00;60.92;99568.75;4279603;33;20119;-94
2023/07/05 08:55:01;;;;;;;12.00;6.30;;;;;;;33.09;60.95;99572.94;4292687;33;20193;-93
2023/07/05 08:57:33;;;;;;;9.40;6.37;;;;;;;33.26;60.95;99574.31;4279003;33;20116;-92
2023/07/05 09:00:00;;;;;;;9.20;6.20;;;;;;;33.38;60.95;99571.09;4266960;33;20568;-92
2023/07/05 09:02:26;;;;;;;10.40;5.87;;;;;;;33.65;60.97;99566.63;4281778;33;20126;-92
2023/07/05 09:04:53;;;;;;;11.50;6.25;;;;;;;33.66;60.97;99566.41;4281843;33;20120;-92
2023/07/05 09:07:49;;;;;;;9.43;6.72;;;;;;;33.82;60.98;99567.91;4294277;33;20130;-91
2023/07/05 09:10:32;;;;;;;11.40;5.72;;;;;;;33.75;60.98;99564.34;4305930;33;20100;-92
2023/07/05 09:13:20;;;;;;;8.55;6.37;;;;;;;33.69;60.97;99567.88;4295727;33;20629;-90
2023/07/05 09:15:50;;;;;;;10.85;5.62;;;;;;;33.99;60.99;99558.41;4306443;33;20167;-92
2023/07/05 09:18:20;;;;;;;10.98;6.07;;;;;;;34.24;61.00;99550.56;4295652;33;20104;-91
2023/07/05 09:21:01;;;;;;;11.15;5.32;;;;;;;34.23;61.00;99554.28;4316828;33;20057;-91
2023/07/05 09:23:40;;;;;;;9.10;6.50;;;;;;;34.29;60.99;99552.63;4310034;33;20100;-91
2023/07/05 09:26:34;;;;;;;11.32;6.32;;;;;;;34.32;61.00;99557.66;4305859;33;20418;-92
2023/07/05 09:29:14;;;;;;;9.85;6.35;;;;;;;34.08;60.99;99553.66;4295346;33;20110;-91
2023/07/05 09:31:39;;;;;;;8.88;6.03;;;;;;;34.20;60.99;99551.19;4305774;33;20088;-91
2023/07/05 09:34:24;;;;;;;9.63;6.60;;;;;;;34.39;61.01;99547.69;4281312;33;20111;-90
2023/07/05 09:36:51;;;;;;;7.03;5.47;;;;;;;34.36;61.00;99545.41;4293947;33;20780;-91
2023/07/05 09:39:54;;;;;;;7.07;5.65;;;;;;;34.14;60.99;99544.75;4293401;33;20108;-92
2023/07/05 09:42:28;;;;;;;10.43;5.62;;;;;;;34.14;61.00;99542.88;4318515;33;20492;-92
2023/07/05 09:44:54;;;;;;;12.40;7.05;;;;;;;34.37;61.00;99544.37;4293771;33;20092;-92
2023/07/05 09:47:20;;;;;;;7.35;5.47;;;;;;;34.47;61.01;99540.19;4281417;33;20510;-91
2023/07/05 09:49:46;;;;;;;8.70;5.57;;;;;;;34.53;61.02;99538.53;4292983;33;20179;-91
2023/07/05 09:52:11;;;;;;;10.45;5.78;;;;;;;34.68;61.02;99541.00;4295169;33;20126;-92
2023/07/05 09:54:37;;;;;;;9.05;5.43;;;;;;;34.87;61.03;99539.34;4295287;33;20114;-92
2023/07/05 09:57:06;;;;;;;8.85;6.03;;;;;;;34.90;61.03;99537.06;4295213;33;20136;-93
2023/07/05 09:59:32;;;;;;;9.03;6.17;;;;;;;34.80;61.03;99531.22;4295480;33;20386;-92
2023/07/05 10:02:10;;;;;;;11.35;5.75;;;;;;;34.91;61.03;99535.19;4295392;33;20110;-92
2023/07/05 10:04:46;;;;;;;11.38;6.20;;;;;;;35.00;61.03;99532.03;4307357;33;20555;-91
2023/07/05 10:07:19;;;;;;;8.25;6.12;;;;;;;34.95;61.04;99537.25;4295505;33;20469;-92
2023/07/05 10:10:12;;;;;;;9.57;5.70;;;;;;;34.82;61.03;99531.84;4307330;33;20138;-92
2023/07/05 10:12:40;;;;;;;8.52;5.55;;;;;;;35.08;61.04;99530.97;4294967;33;20122;-93
2023/07/05 10:15:21;;;;;;;10.02;5.40;;;;;;;35.23;61.04;99536.09;4295165;33;20147;-92
2023/07/05 10:17:47;;;;;;;8.07;5.97;;;;;;;35.28;61.05;99526.31;4283268;33;20182;-92
2023/07/05 10:20:37;;;;;;;9.10;6.07;;;;;;;35.18;61.05;99525.94;4294959;33;20131;-92
2023/07/05 10:23:05;;;;;;;8.77;5.60;;;;;;;34.91;61.03;99530.59;4296845;33;20100;-93
2023/07/05 10:25:35;;;;;;;7.97;5.62;;;;;;;34.93;61.04;99520.41;4283245;33;20121;-92
2023/07/05 10:28:02;;;;;;;7.93;6.20;;;;;;;35.25;61.06;99523.19;4294923;33;20135;-94
2023/07/05 10:30:29;;;;;;;12.20;6.05;;;;;;;35.13;61.04;99523.03;4295313;33;20183;-92
2023/07/05 10:33:20;;;;;;;9.32;5.85;;;;;;;35.17;61.04;99521.56;4307147;33;20091;-93
2023/07/05 10:36:08;;;;;;;10.32;5.57;;;;;;;35.19;61.05;99522.19;4320548;33;20064;-92
2023/07/05 10:38:50;;;;;;;10.25;6.00;;;;;;;34.92;61.04;99518.72;4310238;33;20112;-92
2023/07/05 10:41:15;;;;;;;8.85;5.82;;;;;;;34.81;61.03;99519.38;4295317;33;20076;-92
2023/07/05 10:43:40;;;;;;;10.90;5.85;;;;;;;34.87;61.04;99515.00;4320944;33;20118;-92
2023/07/05 10:46:07;;;;;;;7.95;5.28;;;;;;;34.70;61.03;99511.88;4296273;33;20104;-92
2023/07/05 10:48:38;;;;;;;12.37;6.95;;;;;;;34.62;61.03;99515.66;4298598;33;20191;-92
2023/07/05 10:51:04;;;;;;;6.93;5.30;;;;;;;34.72;61.03;99515.22;4306357;33;20167;-92
2023/07/05 10:53:29;;;;;;;8.18;6.07;;;;;;;34.69;61.03;99512.94;4296038;33;20450;-91
2023/07/05 10:56:01;;;;;;;8.90;5.43;;;;;;;34.90;61.04;99515.41;4307644;33;20139;-92
2023/07/05 10:58:34;;;;;;;8.15;5.37;;;;;;;35.02;61.05;99510.19;4320056;33;20091;-90
2023/07/05 11:01:04;;;;;;;10.48;5.90;;;;;;;35.10;61.05;99507.25;4295559;33;20116;-91
2023/07/05 11:03:35;;;;;;;9.88;5.57;;;;;;;35.26;61.06;99505.94;4294361;33;20155;-90
2023/07/05 11:06:00;;;;;;;9.63;5.95;;;;;;;35.40;61.07;99504.84;4306877;33;20168;-91
2023/07/05 11:08:30;;;;;;;7.78;5.75;;;;;;;35.57;61.08;99499.78;4294822;33;20116;-92
2023/07/05 11:10:58;;;;;;;10.30;5.75;;;;;;;35.73;61.08;99498.41;4295095;33;20133;-92
2023/07/05 11:13:23;;;;;;;8.15;5.43;;;;;;;35.84;61.09;99492.34;4283033;33;20100;-91
2023/07/05 11:15:49;;;;;;;8.82;5.97;;;;;;;35.74;61.08;99489.25;4294720;33;20084;-91
2023/07/05 11:18:21;;;;;;;9.00;6.03;;;;;;;35.52;61.07;99488.78;4294612;33;20119;-91
2023/07/05 11:20:48;;;;;;;11.55;5.55;;;;;;;35.71;61.07;99484.25;4295226;33;20494;-92
2023/07/05 11:23:43;;;;;;;10.20;6.25;;;;;;;35.81;61.07;99484.63;4294601;33;20092;-91
2023/07/05 11:26:29;;;;;;;8.38;6.22;;;;;;;35.92;61.09;99470.38;4293851;33;20115;-92
2023/07/05 11:28:55;;;;;;;9.35;6.32;;;;;;;35.93;61.08;99483.72;4308491;33;20123;-91
2023/07/05 11:31:29;;;;;;;12.20;6.00;;;;;;;35.69;61.08;99473.66;4294618;33;20124;-92
2023/07/05 11:34:23;;;;;;;12.48;6.93;;;;;;;35.57;61.08;99478.94;4306528;33;20096;-90
2023/07/05 11:36:49;;;;;;;9.75;6.25;;;;;;;35.41;61.07;99474.03;4306733;33;20087;-91
2023/07/05 11:39:38;;;;;;;10.60;6.15;;;;;;;35.51;61.07;99476.28;4306429;33;20133;-91
2023/07/05 11:42:13;;;;;;;12.13;6.40;;;;;;;35.45;61.07;99456.31;4299244;33;20096;-91
2023/07/05 11:44:45;;;;;;;10.38;6.60;;;;;;;35.08;61.05;99460.63;4320234;33;20092;-91
2023/07/05 11:47:33;;;;;;;8.55;5.82;;;;;;;35.03;61.05;99464.00;4295018;33;20092;-91
2023/07/05 11:50:06;;;;;;;9.32;6.28;;;;;;;35.08;61.05;99457.94;4319875;33;20104;-90
2023/07/05 11:52:42;;;;;;;10.00;6.45;;;;;;;35.18;61.06;99449.34;4306707;33;20103;-93
2023/07/05 11:55:20;;;;;;;11.27;6.72;;;;;;;35.21;61.06;99448.91;4295009;33;20159;-90
2023/07/05 11:58:11;;;;;;;9.65;7.00;;;;;;;35.43;61.07;99444.87;4294583;33;20115;-91
2023/07/05 12:00:43;;;;;;;9.45;6.72;;;;;;;35.59;61.07;99449.78;4317256;33;20112;-91
2023/07/05 12:03:22;;;;;;;8.85;7.43;;;;;;;35.67;61.08;99444.06;4306758;33;20151;-92
2023/07/05 12:06:10;;;;;;;12.23;7.20;;;;;;;35.95;61.09;99434.72;4294392;33;20143;-92
2023/07/05 12:08:44;;;;;;;10.98;7.40;;;;;;;35.87;61.08;99437.72;4306436;33;20130;-91
2023/07/05 12:11:11;;;;;;;11.23;7.07;;;;;;;35.92;61.09;99427.06;4295144;33;20096;-93
2023/07/05 12:13:38;;;;;;;10.18;6.85;;;;;;;35.73;61.08;99425.28;4295760;33;20138;-93
2023/07/05 12:16:11;;;;;;;11.15;7.35;;;;;;;35.62;61.07;99419.53;4300196;33;20115;-94
2023/07/05 12:18:37;;;;;;;8.93;6.82;;;;;;;35.50;61.07;99421.31;4304528;33;20110;-91
2023/07/05 12:21:03;;;;;;;9.93;7.00;;;;;;;35.35;61.07;99423.47;4283616;33;20155;-90
2023/07/05 12:23:29;;;;;;;10.27;7.37;;;;;;;35.00;61.04;99420.28;4294184;33;20488;-91
2023/07/05 12:25:56;;;;;;;13.38;7.80;;;;;;;35.10;61.06;99414.44;4281942;33;20096;-91
2023/07/05 12:28:25;;;;;;;10.07;7.07;;;;;;;35.15;61.05;99404.59;4294053;33;20126;-91
2023/07/05 12:30:55;;;;;;;9.23;7.30;;;;;;;35.19;61.06;99402.28;4306090;33;20520;-91
2023/07/05 12:33:22;;;;;;;9.75;7.07;;;;;;;35.33;61.07;99390.38;4294211;33;20179;-91
2023/07/05 12:36:09;;;;;;;9.10;6.62;;;;;;;35.38;61.06;99395.97;4306089;33;20461;-91
2023/07/05 12:38:34;;;;;;;9.75;6.68;;;;;;;35.51;61.07;99379.66;4308066;33;20104;-92
2023/07/05 12:41:00;;;;;;;12.05;6.97;;;;;;;35.55;61.06;99390.87;4319354;33;20100;-92
2023/07/05 12:43:28;;;;;;;10.52;7.03;;;;;;;35.73;61.09;99374.69;4294248;33;20139;-91
2023/07/05 12:46:24;;;;;;;9.23;7.03;;;;;;;35.78;61.08;99372.16;4294623;33;20487;-92
2023/07/05 12:48:50;;;;;;;11.27;7.22;;;;;;;36.08;61.10;99372.31;4308030;33;20454;-91
2023/07/05 12:51:20;;;;;;;9.30;6.78;;;;;;;36.06;61.10;99371.72;4294277;33;20108;-91
2023/07/05 12:53:50;;;;;;;8.88;6.47;;;;;;;35.95;61.09;99362.41;4294400;33;20133;-92
2023/07/05 12:56:20;;;;;;;8.52;7.05;;;;;;;35.84;61.09;99365.03;4293984;33;20096;-93
2023/07/05 12:58:56;;;;;;;;;;;;;;;35.93;61.09;99361.81;4294647;33;20149;-91
2023/07/05 13:01:24;;;;;;;9.20;6.87;;;;;;;36.18;61.11;99352.81;4308197;33;20016;-91
2023/07/05 13:03:50;;;;;;;12.30;6.75;;;;;;;36.16;61.11;99357.62;4293975;33;20143;-92
2023/07/05 13:06:17;;;;;;;10.35;7.75;;;;;;;36.09;61.10;99349.59;4293606;33;20092;-91
2023/07/05 13:08:46;;;;;;;12.52;7.20;;;;;;;36.18;61.11;99339.25;4281699;33;20139;-91
2023/07/05 13:11:26;;;;;;;10.47;7.37;;;;;;;36.02;61.10;99338.00;4305833;33;20108;-91
2023/07/05 13:14:01;;;;;;;9.18;6.85;;;;;;;36.12;61.09;99327.44;4307247;33;20181;-92
2023/07/05 13:16:46;;;;;;;8.82;7.22;;;;;;;36.27;61.11;99329.81;4293556;33;20096;-91
2023/07/05 13:19:12;;;;;;;11.60;7.30;;;;;;;36.32;61.11;99329.16;4304763;33;20587;-91
2023/07/05 13:21:42;;;;;;;10.57;7.53;;;;;;;36.27;61.11;99333.34;4305347;33;20128;-90
2023/07/05 13:24:37;;;;;;;10.15;7.07;;;;;;;36.48;61.12;99331.25;4305475;33;20112;-91
2023/07/05 13:27:04;;;;;;;10.50;7.30;;;;;;;36.48;61.12;99320.41;4294841;33;20100;-91
2023/07/05 13:29:36;;;;;;;10.10;7.60;;;;;;;36.37;61.13;99319.28;4295471;33;20084;-90
2023/07/05 13:32:01;;;;;;;10.98;7.22;;;;;;;36.14;61.11;99317.22;4307692;33;20130;-91
2023/07/05 13:34:27;;;;;;;10.75;7.65;;;;;;;36.12;61.10;99310.38;4295647;33;20115;-91
2023/07/05 13:37:13;;;;;;;10.75;7.18;;;;;;;36.13;61.10;99314.72;4307463;33;20112;-90
2023/07/05 13:40:32;;;;;;;11.63;7.35;;;;;;;36.30;61.12;99307.66;4295390;33;20151;-89
2023/07/05 13:42:57;;;;;;;10.50;7.62;;;;;;;36.33;61.11;99307.25;4301079;33;20179;-90
2023/07/05 13:45:28;;;;;;;12.20;7.35;;;;;;;36.17;61.11;99303.22;4303688;33;20068;-90
2023/07/05 13:47:54;;;;;;;11.95;8.18;;;;;;;35.62;61.08;99297.69;4301206;33;20096;-90
2023/07/05 13:50:19;;;;;;;9.30;6.93;;;;;;;35.47;61.07;99299.91;4295447;33;20139;-90
2023/07/05 13:52:46;;;;;;;11.30;8.07;;;;;;;35.42;61.07;99299.75;4306758;33;21850;-91
2023/07/05 13:55:19;;;;;;;10.77;7.53;;;;;;;35.27;61.07;99288.41;4307140;33;20138;-89
2023/07/05 13:57:55;;;;;;;9.38;7.18;;;;;;;35.37;61.07;99283.34;4306903;33;20115;-91
2023/07/05 14:00:21;;;;;;;13.18;7.72;;;;;;;35.26;61.06;99278.63;4295242;33;20120;-91
2023/07/05 14:02:48;;;;;;;12.07;7.97;;;;;;;35.24;61.06;99275.28;4295059;33;20112;-90
2023/07/05 14:05:14;;;;;;;13.65;7.95;;;;;;;35.06;61.06;99273.38;4283310;33;20138;-91
2023/07/05 14:07:39;;;;;;;10.68;7.57;;;;;;;34.82;61.04;99274.94;4294925;33;20120;-90
2023/07/05 14:10:05;;;;;;;11.12;7.20;;;;;;;34.79;61.04;99278.09;4306960;33;20238;-90
2023/07/05 14:12:31;;;;;;;10.95;7.43;;;;;;;34.76;61.04;99278.50;4294830;33;20139;-90
2023/07/05 14:14:56;;;;;;;11.98;8.05;;;;;;;34.93;61.05;99282.38;4307089;33;20100;-91
2023/07/05 14:17:22;;;;;;;11.18;7.60;;;;;;;34.88;61.04;99274.09;4294899;33;20213;-91
2023/07/05 14:19:48;;;;;;;12.50;8.00;;;;;;;35.08;61.05;99271.28;4320342;33;20128;-90
2023/07/05 14:22:22;;;;;;;12.15;7.85;;;;;;;35.08;61.05;99269.41;4294671;33;20113;-90
2023/07/05 14:24:48;;;;;;;11.27;7.87;;;;;;;35.05;61.05;99272.53;4295677;33;20167;-90
2023/07/05 14:27:21;;;;;;;12.05;8.25;;;;;;;34.86;61.05;99272.66;4295597;33;20095;-90
2023/07/05 14:29:47;;;;;;;13.35;7.62;;;;;;;34.87;61.04;99283.25;4307309;33;20152;-90
2023/07/05 14:32:13;;;;;;;20.80;7.85;;;;;;;34.78;61.04;99268.28;4295277;33;20108;-90
2023/07/05 14:34:39;;;;;;;17.65;8.55;;;;;;;34.79;61.04;99267.28;4294561;33;20135;-90
2023/07/05 14:37:05;;;;;;;10.05;7.95;;;;;;;34.76;61.03;99264.97;4306930;33;20088;-90
2023/07/05 14:39:30;;;;;;;12.20;7.80;;;;;;;34.65;61.03;99271.91;4306721;33;20148;-90
2023/07/05 14:41:56;;;;;;;10.80;7.78;;;;;;;34.46;61.02;99268.25;4294721;33;20120;-90
2023/07/05 14:44:21;;;;;;;11.57;8.38;;;;;;;34.39;61.02;99259.38;4282743;33;20119;-90
2023/07/05 14:46:46;;;;;;;11.48;7.68;;;;;;;34.41;61.02;99261.84;4294893;33;20124;-90
2023/07/05 14:49:13;;;;;;;12.35;7.57;;;;;;;34.16;61.01;99259.00;4294719;33;20111;-90
2023/07/05 14:51:38;;;;;;;11.45;8.55;;;;;;;34.11;61.01;99267.75;4294967;33;20434;-91
2023/07/05 14:54:03;;;;;;;11.88;9.75;;;;;;;34.14;61.01;99263.81;4294717;33;20130;-91
2023/07/05 14:56:29;;;;;;;11.75;8.25;;;;;;;33.95;60.99;99267.38;4294750;33;20343;-91
2023/07/05 14:58:54;;;;;;;11.27;7.78;;;;;;;33.98;61.01;99269.66;4294506;33;20116;-90
2023/07/05 15:01:20;;;;;;;10.77;7.43;;;;;;;33.98;61.00;99258.84;4320010;33;20100;-90
2023/07/05 15:03:46;;;;;;;10.05;7.30;;;;;;;33.89;61.00;99274.47;4295257;33;20104;-91
2023/07/05 15:06:11;;;;;;;10.68;7.95;;;;;;;34.00;61.00;99265.69;4309597;33;20056;-90
2023/07/05 15:08:38;;;;;;;12.93;9.05;;;;;;;34.14;61.01;99253.00;4299523;33;20197;-90
2023/07/05 15:11:04;;;;;;;10.55;7.65;;;;;;;34.15;61.01;99260.06;4297983;33;20115;-90
2023/07/05 15:13:32;;;;;;;9.77;7.65;;;;;;;34.01;61.00;99263.81;4311086;33;20398;-90
2023/07/05 15:15:58;;;;;;;13.93;7.87;;;;;;;34.10;61.01;99263.41;4329556;33;20118;-91
2023/07/05 15:18:26;;;;;;;12.43;7.35;;;;;;;34.22;61.01;99263.56;4308211;33;20083;-91
2023/07/05 15:20:51;;;;;;;11.45;7.97;;;;;;;34.38;61.03;99260.41;4295103;33;20144;-90
2023/07/05 15:23:17;;;;;;;13.40;7.72;;;;;;;34.27;61.01;99249.41;4294393;33;20143;-90
2023/07/05 15:25:42;;;;;;;9.40;7.62;;;;;;;34.29;61.02;99253.53;4294228;33;20452;-90
2023/07/05 15:28:08;;;;;;;8.93;6.70;;;;;;;34.06;61.01;99262.13;4306572;33;20472;-90
2023/07/05 15:30:33;;;;;;;8.90;7.07;;;;;;;33.99;61.00;99265.91;4294585;33;20189;-90
2023/07/05 15:32:59;;;;;;;10.70;6.97;;;;;;;34.00;61.00;99257.59;4320053;33;20159;-90
2023/07/05 15:35:25;;;;;;;11.10;7.25;;;;;;;33.85;60.99;99265.97;4306577;33;20378;-90
2023/07/05 15:37:51;;;;;;;8.35;6.37;;;;;;;33.81;61.00;99261.13;4294747;33;20118;-90
2023/07/05 15:40:17;;;;;;;12.37;7.60;;;;;;;33.54;60.98;99263.88;4306375;33;20101;-91
2023/07/05 15:42:43;;;;;;;8.82;7.00;;;;;;;33.32;60.97;99264.31;4294738;33;20501;-90
2023/07/05 15:45:09;;;;;;;11.65;6.70;;;;;;;33.35;60.97;99267.41;4294269;33;20123;-91
2023/07/05 15:47:35;;;;;;;9.23;6.78;;;;;;;33.16;60.96;99265.53;4306155;33;20108;-90
2023/07/05 15:50:01;;;;;;;10.18;6.72;;;;;;;33.14;60.96;99267.59;4306037;33;20442;-90
2023/07/05 15:52:27;;;;;;;11.57;8.07;;;;;;;33.21;60.96;99260.34;4294640;33;20139;-91
2023/07/05 15:54:52;;;;;;;8.77;6.72;;;;;;;33.20;60.97;99261.37;4294407;33;20181;-90
2023/07/05 15:57:17;;;;;;;8.85;6.40;;;;;;;33.33;60.97;99263.25;4294523;33;20167;-91
2023/07/05 15:59:47;;;;;;;8.68;6.72;;;;;;;33.21;60.96;99266.56;4319199;33;20148;-90
2023/07/05 16:02:17;;;;;;;10.70;6.57;;;;;;;33.18;60.96;99261.59;4307211;33;20166;-91
2023/07/05 16:04:43;;;;;;;9.73;6.65;;;;;;;33.15;60.97;99258.47;4294908;33;20111;-90
2023/07/05 16:07:08;;;;;;;9.40;6.90;;;;;;;33.11;60.96;99257.19;4294477;33;20785;-90
2023/07/05 16:09:34;;;;;;;8.23;6.47;;;;;;;33.10;60.97;99266.34;4319981;33;20164;-90
2023/07/05 16:11:59;;;;;;;9.20;6.90;;;;;;;33.21;60.96;99258.47;4309895;33;20128;-90
2023/07/05 16:14:25;;;;;;;9.65;6.43;;;;;;;33.42;60.98;99254.78;4309564;33;20142;-90
2023/07/05 16:16:52;;;;;;;9.55;6.12;;;;;;;33.38;60.97;99255.41;4307300;33;20087;-90
2023/07/05 16:19:17;;;;;;;11.43;6.55;;;;;;;33.23;60.97;99252.88;4322572;33;20143;-90
2023/07/05 16:21:43;;;;;;;9.52;6.80;;;;;;;33.19;60.96;99247.06;4321368;33;20112;-90
2023/07/05 16:24:09;;;;;;;8.77;5.97;;;;;;;33.26;60.97;99247.88;4296543;33;20086;-90
2023/07/05 16:26:34;;;;;;;10.75;6.18;;;;;;;33.38;60.98;99242.75;4297464;33;20114;-90
2023/07/05 16:29:00;;;;;;;11.05;6.28;;;;;;;33.16;60.97;99246.66;4297106;33;20112;-90
2023/07/05 16:31:25;;;;;;;9.57;6.43;;;;;;;33.21;60.96;99246.84;4297080;33;20104;-90
2023/07/05 16:33:52;;;;;;;10.85;7.10;;;;;;;33.16;60.97;99239.37;4286909;33;20083;-90
2023/07/05 16:36:17;;;;;;;9.60;7.75;;;;;;;33.13;60.96;99242.50;4311007;33;20083;-91
2023/07/05 16:38:43;;;;;;;8.25;6.20;;;;;;;33.27;60.97;99249.53;4299309;33;20412;-90
2023/07/05 16:41:09;;;;;;;9.13;6.87;;;;;;;33.08;60.96;99249.53;4310846;33;20100;-90
2023/07/05 16:43:36;;;;;;;9.35;7.05;;;;;;;33.09;60.96;99245.78;4313245;33;20082;-89
2023/07/05 16:46:08;;;;;;;14.10;7.87;;;;;;;33.13;60.96;99245.19;4302726;33;20150;-90
2023/07/05 16:48:34;;;;;;;11.07;7.10;;;;;;;33.06;60.95;99238.94;4309456;33;20147;-90
2023/07/05 16:51:00;;;;;;;11.30;7.12;;;;;;;32.92;60.96;99248.09;4293679;33;20171;-90
2023/07/05 16:53:26;;;;;;;12.13;8.07;;;;;;;33.07;60.95;99234.38;4316687;33;20202;-90
2023/07/05 16:56:00;;;;;;;10.32;8.02;;;;;;;33.02;60.96;99237.72;4292616;33;20126;-90
2023/07/05 16:58:27;;;;;;;10.25;7.00;;;;;;;32.91;60.95;99244.56;4292621;33;20476;-90
2023/07/05 17:01:00;;;;;;;10.27;6.30;;;;;;;33.12;60.96;99237.28;4278757;33;20124;-90
2023/07/05 17:03:27;;;;;;;10.55;7.47;;;;;;;33.08;60.96;99233.34;4291783;33;20787;-90
2023/07/05 17:05:55;;;;;;;9.50;6.95;;;;;;;32.57;60.93;99229.31;4294136;33;20096;-90
2023/07/05 17:08:21;;;;;;;11.18;6.87;;;;;;;32.62;60.93;99240.28;4306223;33;20134;-90
2023/07/05 17:10:46;;;;;;;9.93;6.60;;;;;;;32.63;60.93;99241.94;4294204;33;20470;-88
2023/07/05 17:13:12;;;;;;;11.00;6.85;;;;;;;32.49;60.92;99242.97;4305966;33;20111;-89